Time;durP1;ratioP1;P1;durP2;ratioP2;P2;SDS_P1;SDS_P2;PMS_P1;PMS_P2;Temp;Humidity;BMP_temperature;BMP_pressure;BME280_temperature;BME280_humidity;BME280_pressure;Samples;Min_cycle;Max_cycle;Signal;HPM_P1;HPM_P2
2022/08/22 00:02:22;;;;;;;12.90;9.43;;;;;;;16.51;100.00;98989.50;4492249;31;35920;-79
2022/08/22 00:05:48;;;;;;;9.45;7.18;;;;;;;16.70;100.00;98986.66;4491095;31;34604;-78
2022/08/22 00:08:54;;;;;;;12.52;7.85;;;;;;;17.17;100.00;98984.75;4484187;31;34079;-79
2022/08/22 00:11:47;;;;;;;9.65;7.55;;;;;;;16.66;100.00;98990.56;4490558;31;34686;-79
2022/08/22 00:14:41;;;;;;;12.00;7.87;;;;;;;16.61;100.00;98994.41;4481978;31;34874;-78
2022/08/22 00:17:54;;;;;;;12.80;8.48;;;;;;;16.71;100.00;98993.81;4472663;32;34517;-79
2022/08/22 00:20:49;;;;;;;10.35;8.00;;;;;;;16.64;100.00;99000.00;4479257;31;35010;-78
2022/08/22 00:24:15;;;;;;;11.55;8.55;;;;;;;16.81;100.00;98987.69;4478702;32;34598;-79
2022/08/22 00:27:12;;;;;;;12.80;8.40;;;;;;;16.39;100.00;98993.19;4410129;32;34965;-78
2022/08/22 00:30:10;;;;;;;11.82;7.70;;;;;;;16.40;100.00;99000.34;4482380;31;34535;-79
2022/08/22 00:33:15;;;;;;;12.60;8.43;;;;;;;16.51;100.00;98998.59;4480324;31;34140;-79
2022/08/22 00:36:42;;;;;;;11.73;7.95;;;;;;;16.39;100.00;98990.44;4482366;31;34338;-78
2022/08/22 00:39:49;;;;;;;9.65;7.47;;;;;;;16.44;100.00;98994.87;4489943;31;36076;-79
2022/08/22 00:43:01;;;;;;;9.07;7.28;;;;;;;16.40;100.00;99000.34;4459882;31;34549;-79
2022/08/22 00:45:56;;;;;;;10.02;7.80;;;;;;;16.47;100.00;98992.19;4490043;31;34051;-79
2022/08/22 00:48:55;;;;;;;10.25;7.53;;;;;;;16.43;100.00;98996.84;4480944;31;34662;-79
2022/08/22 00:51:53;;;;;;;10.65;7.72;;;;;;;16.13;100.00;99002.16;4490867;31;35583;-79
2022/08/22 00:55:06;;;;;;;10.90;7.43;;;;;;;16.37;100.00;98998.31;4479194;31;34515;-79
2022/08/22 00:58:10;;;;;;;12.15;8.05;;;;;;;16.71;100.00;98993.81;4490924;31;34085;-80
2022/08/22 01:01:05;;;;;;;12.05;7.97;;;;;;;16.69;100.00;99000.88;4481637;31;35613;-81
2022/08/22 01:04:22;;;;;;;11.38;7.75;;;;;;;16.33;100.00;98997.44;4484478;31;34947;-79
2022/08/22 01:07:41;;;;;;;9.27;7.30;;;;;;;16.35;100.00;98998.66;4483429;31;34508;-79
2022/08/22 01:10:57;;;;;;;10.52;8.05;;;;;;;16.75;100.00;99004.94;4481606;31;33909;-80
2022/08/22 01:14:14;;;;;;;9.77;7.43;;;;;;;16.36;100.00;98996.69;4482252;31;35556;-79
2022/08/22 01:17:40;;;;;;;10.10;7.72;;;;;;;16.49;100.00;99003.69;4496563;31;34955;-80
2022/08/22 01:21:04;;;;;;;9.20;6.90;;;;;;;16.51;100.00;99001.34;4492376;31;34588;-79
2022/08/22 01:24:12;;;;;;;9.13;7.53;;;;;;;16.73;100.00;98983.16;4492550;31;35138;-79
2022/08/22 01:27:21;;;;;;;8.65;7.03;;;;;;;16.65;100.00;98987.00;4488807;31;35746;-80
2022/08/22 01:30:17;;;;;;;9.57;6.65;;;;;;;17.06;100.00;98988.13;4476497;31;34777;-79
2022/08/22 01:33:29;;;;;;;9.02;7.12;;;;;;;17.00;100.00;98994.34;4479194;31;34594;-80
2022/08/22 01:36:44;;;;;;;9.70;6.87;;;;;;;16.43;100.00;98988.56;4481400;31;34054;-80
2022/08/22 01:39:42;;;;;;;9.43;6.30;;;;;;;17.09;100.00;98984.63;4447099;31;34671;-80
2022/08/22 01:43:19;;;;;;;9.23;6.10;;;;;;;17.27;100.00;98981.34;4477303;31;35945;-79
2022/08/22 01:46:33;;;;;;;7.37;5.97;;;;;;;17.39;100.00;98994.16;4425570;32;34478;-80
2022/08/22 01:49:25;;;;;;;7.37;6.03;;;;;;;17.45;100.00;98990.72;4421194;32;35011;-81
2022/08/22 01:52:18;;;;;;;7.80;5.82;;;;;;;16.94;100.00;98990.31;4480726;31;34512;-80
2022/08/22 01:55:11;;;;;;;8.65;6.53;;;;;;;17.06;100.00;98988.13;4483731;31;35006;-80
2022/08/22 01:58:04;;;;;;;9.77;6.32;;;;;;;16.36;100.00;98982.88;4469214;31;35456;-79
2022/08/22 02:01:10;;;;;;;9.32;6.50;;;;;;;16.57;100.00;98988.81;4479929;31;35072;-80
2022/08/22 02:04:18;;;;;;;9.93;6.32;;;;;;;17.36;100.00;98986.59;4454728;31;35015;-80
2022/08/22 02:07:13;;;;;;;7.97;5.93;;;;;;;17.82;100.00;98990.09;4478601;31;35924;-80
2022/08/22 02:09:59;;;;;;;8.27;5.45;;;;;;;17.20;100.00;98986.78;4479166;31;35439;-80
2022/08/22 02:13:03;;;;;;;8.40;5.35;;;;;;;17.25;100.00;98980.91;4488575;31;34222;-80
2022/08/22 02:16:08;;;;;;;9.35;5.40;;;;;;;18.04;100.00;98990.34;4481053;31;34698;-79
2022/08/22 02:19:03;;;;;;;7.47;5.65;;;;;;;17.58;100.00;98982.19;4491321;31;34904;-80
2022/08/22 02:22:16;;;;;;;7.43;5.25;;;;;;;16.95;100.00;98978.84;4488697;31;35453;-80
2022/08/22 02:25:14;;;;;;;9.70;6.18;;;;;;;16.89;100.00;98982.31;4494525;31;33022;-80
2022/08/22 02:28:08;;;;;;;8.70;6.40;;;;;;;17.17;100.00;98973.69;4471524;31;35124;-80
2022/08/22 02:31:19;;;;;;;9.13;6.37;;;;;;;16.59;100.00;98967.16;4476159;31;34985;-80
2022/08/22 02:34:25;;;;;;;9.40;6.50;;;;;;;16.64;100.00;98977.88;4476414;31;34178;-80
2022/08/22 02:37:30;;;;;;;8.80;6.22;;;;;;;16.69;100.00;98971.25;4486073;31;33788;-80
2022/08/22 02:40:27;;;;;;;9.98;6.45;;;;;;;16.92;100.00;98968.53;4484661;31;34662;-80
2022/08/22 02:43:28;;;;;;;12.05;6.78;;;;;;;17.00;100.00;98961.94;4486318;31;34934;-80
2022/08/22 02:46:22;;;;;;;7.93;5.93;;;;;;;17.10;100.00;98966.03;4479971;31;34510;-80
2022/08/22 02:49:15;;;;;;;9.23;6.75;;;;;;;17.16;100.00;98963.75;4471900;31;34122;-80
2022/08/22 02:52:18;;;;;;;8.45;6.18;;;;;;;17.19;100.00;98969.38;4477021;31;35487;-80
2022/08/22 02:55:11;;;;;;;9.70;6.70;;;;;;;17.41;100.00;98964.94;4478881;31;34966;-80
2022/08/22 02:58:19;;;;;;;10.48;6.93;;;;;;;17.09;100.00;98964.44;4470298;31;34494;-80
2022/08/22 03:01:09;;;;;;;10.20;6.85;;;;;;;17.57;100.00;98958.44;4460064;31;35014;-81
2022/08/22 03:04:25;;;;;;;8.75;6.45;;;;;;;17.08;100.00;98960.88;4474640;31;36551;-80
2022/08/22 03:07:20;;;;;;;9.13;6.95;;;;;;;17.01;100.00;98958.00;4488358;31;33888;-80
2022/08/22 03:10:35;;;;;;;9.80;7.28;;;;;;;17.41;100.00;98959.41;4467501;31;35396;-81
2022/08/22 03:14:10;;;;;;;9.68;6.80;;;;;;;17.07;100.00;98961.25;4464800;31;34649;-80
2022/08/22 03:17:02;;;;;;;10.10;7.05;;;;;;;17.89;100.00;98968.00;4413038;31;34594;-80
2022/08/22 03:20:06;;;;;;;11.00;7.12;;;;;;;17.75;100.00;98970.56;4480750;31;34944;-80
2022/08/22 03:23:02;;;;;;;11.50;6.85;;;;;;;17.44;100.00;98968.94;4489418;31;34122;-80
2022/08/22 03:26:13;;;;;;;10.77;6.93;;;;;;;17.28;100.00;98969.09;4480905;31;34954;-80
2022/08/22 03:29:04;;;;;;;10.30;7.20;;;;;;;17.39;100.00;98977.56;4471485;31;35402;-80
2022/08/22 03:32:10;;;;;;;10.27;6.95;;;;;;;17.81;100.00;98977.38;4482575;31;35014;-80
2022/08/22 03:35:07;;;;;;;8.98;6.10;;;;;;;18.33;100.00;98984.00;4482072;31;35142;-80
2022/08/22 03:38:09;;;;;;;9.15;6.40;;;;;;;18.76;100.00;98984.47;4470526;31;34125;-80
2022/08/22 03:41:27;;;;;;;8.35;6.00;;;;;;;18.41;100.00;98988.44;4475850;31;34617;-80
2022/08/22 03:45:01;;;;;;;10.30;6.45;;;;;;;18.65;100.00;98986.31;4484435;31;35000;-80
2022/08/22 03:48:23;;;;;;;10.57;6.68;;;;;;;18.38;100.00;98982.84;4489122;31;34267;-80
2022/08/22 03:51:25;;;;;;;10.43;7.90;;;;;;;17.59;100.00;98986.53;4492820;31;35088;-81
2022/08/22 03:54:37;;;;;;;10.35;7.78;;;;;;;17.41;100.00;98981.53;4475809;31;34221;-80
2022/08/22 03:58:07;;;;;;;12.73;7.45;;;;;;;17.69;100.00;98985.91;4489054;31;34946;-79
2022/08/22 04:01:28;;;;;;;11.15;7.57;;;;;;;18.00;100.00;98995.87;4475884;31;35244;-79
2022/08/22 04:04:34;;;;;;;13.48;7.18;;;;;;;17.60;100.00;98993.69;4478869;31;34088;-79
2022/08/22 04:07:32;;;;;;;10.65;7.15;;;;;;;18.09;100.00;98992.81;4490726;31;33732;-79
2022/08/22 04:10:31;;;;;;;11.57;7.62;;;;;;;18.08;100.00;98996.75;4479089;31;34963;-79
2022/08/22 04:13:37;;;;;;;9.18;7.00;;;;;;;18.05;100.00;99008.59;4476102;31;33418;-79
2022/08/22 04:17:00;;;;;;;11.27;7.47;;;;;;;18.69;100.00;98992.69;4490056;31;35696;-79
2022/08/22 04:20:19;;;;;;;10.82;7.25;;;;;;;19.09;100.00;98993.88;4469962;31;34558;-79
2022/08/22 04:23:11;;;;;;;9.27;7.37;;;;;;;18.92;100.00;99002.84;4472238;31;34868;-79
2022/08/22 04:26:01;;;;;;;10.20;7.53;;;;;;;18.25;100.00;98998.16;4493121;31;34563;-79
2022/08/22 04:29:29;;;;;;;12.60;7.47;;;;;;;17.98;100.00;98999.00;4479070;31;34001;-79
2022/08/22 04:32:34;;;;;;;9.30;6.75;;;;;;;17.82;100.00;98998.41;4490356;31;34348;-79
2022/08/22 04:35:30;;;;;;;9.68;7.40;;;;;;;18.99;100.00;99000.16;4472555;31;34607;-79
2022/08/22 04:38:38;;;;;;;9.88;6.85;;;;;;;18.63;100.00;99003.31;4476177;31;34999;-79
2022/08/22 04:41:37;;;;;;;10.55;6.57;;;;;;;19.35;100.00;99006.78;4476551;31;33852;-79
2022/08/22 04:44:29;;;;;;;8.55;6.78;;;;;;;19.39;100.00;99006.81;4478508;31;35553;-79
2022/08/22 04:47:42;;;;;;;10.90;7.12;;;;;;;19.03;100.00;99007.31;4485787;31;34672;-79
2022/08/22 04:50:48;;;;;;;10.85;7.45;;;;;;;18.18;100.00;99013.50;4479006;31;34540;-79
2022/08/22 04:54:13;;;;;;;10.35;7.82;;;;;;;18.35;100.00;99012.13;4473885;31;35114;-79
2022/08/22 04:57:19;;;;;;;10.98;8.23;;;;;;;18.22;100.00;99019.13;4485461;31;34205;-79
2022/08/22 05:03:09;;;;;;;10.82;7.60;;;;;;;18.81;100.00;99017.44;4488753;31;35382;-79
2022/08/22 05:06:00;;;;;;;12.37;8.45;;;;;;;19.10;100.00;99017.69;4488667;31;33922;-79
2022/08/22 05:08:49;;;;;;;10.73;8.05;;;;;;;19.30;100.00;99015.50;4479861;31;34573;-79
2022/08/22 05:11:42;;;;;;;11.75;7.87;;;;;;;19.15;100.00;99022.88;4472761;31;34582;-79
2022/08/22 05:14:47;;;;;;;;;;;;;;;18.62;100.00;99020.38;4482087;31;34703;-79
2022/08/22 05:17:35;;;;;;;12.52;8.43;;;;;;;19.43;100.00;99021.53;4465812;31;35437;-79
2022/08/22 05:20:24;;;;;;;13.02;8.52;;;;;;;18.51;100.00;99025.00;4482115;31;34944;-79
2022/08/22 05:23:22;;;;;;;13.00;8.57;;;;;;;18.51;100.00;99019.44;4477178;31;33109;-79
2022/08/22 05:26:12;;;;;;;11.43;9.07;;;;;;;19.06;100.00;99033.50;4478192;31;34999;-79
2022/08/22 05:29:09;;;;;;;10.95;8.35;;;;;;;19.24;100.00;99026.16;4479936;31;35137;-78
2022/08/22 05:32:02;;;;;;;11.52;8.48;;;;;;;20.00;100.00;99033.03;4461894;32;34591;-79
2022/08/22 05:34:50;;;;;;;10.50;8.10;;;;;;;19.74;100.00;99034.88;4460771;32;34921;-79
2022/08/22 05:37:42;;;;;;;18.17;9.43;;;;;;;20.37;100.00;99037.56;4462313;32;34098;-78
2022/08/22 05:40:36;;;;;;;12.90;9.32;;;;;;;18.99;100.00;99039.81;4459400;32;34195;-79
2022/08/22 05:43:25;;;;;;;13.35;10.05;;;;;;;19.81;100.00;99042.47;4462840;32;34648;-79
2022/08/22 05:46:38;;;;;;;12.88;9.65;;;;;;;19.82;100.00;99046.84;4464840;32;35632;-79
2022/08/22 05:49:48;;;;;;;12.75;9.68;;;;;;;19.40;100.00;99038.97;4463639;32;34560;-79
2022/08/22 05:53:07;;;;;;;12.93;9.48;;;;;;;19.36;100.00;99040.94;4460751;32;34708;-79
2022/08/22 05:56:03;;;;;;;12.32;9.75;;;;;;;20.20;100.00;99051.00;4461690;32;35603;-79
2022/08/22 05:58:54;;;;;;;11.32;8.55;;;;;;;20.42;100.00;99056.69;4450013;32;35033;-78
2022/08/22 06:01:58;;;;;;;13.75;10.07;;;;;;;20.26;100.00;99059.00;4459331;32;33430;-79
2022/08/22 06:04:56;;;;;;;12.93;9.48;;;;;;;20.13;100.00;99058.53;4452449;32;35052;-80
2022/08/22 06:07:45;;;;;;;14.18;8.95;;;;;;;20.24;100.00;99066.94;4451796;32;35700;-80
2022/08/22 06:10:43;;;;;;;12.25;9.45;;;;;;;20.31;100.00;99066.97;4457008;32;35947;-80
2022/08/22 06:13:37;;;;;;;16.55;10.43;;;;;;;20.07;100.00;99063.69;4445877;32;35387;-80
2022/08/22 06:16:39;;;;;;;14.73;9.70;;;;;;;20.14;100.00;99069.25;4458872;32;33739;-80
2022/08/22 06:19:37;;;;;;;13.95;9.32;;;;;;;19.65;100.00;99064.16;4461201;32;36287;-79
2022/08/22 06:22:30;;;;;;;12.60;8.52;;;;;;;20.49;100.00;99070.63;4459693;32;35962;-80
2022/08/22 06:25:26;;;;;;;14.48;9.00;;;;;;;19.86;100.00;99069.09;4453267;32;35420;-80
2022/08/22 06:28:21;;;;;;;14.57;9.68;;;;;;;20.31;100.00;99069.75;4470188;32;34242;-80
2022/08/22 06:31:16;;;;;;;11.93;9.10;;;;;;;20.36;100.00;99075.75;4467210;32;34671;-80
2022/08/22 06:34:14;;;;;;;11.88;8.27;;;;;;;21.22;100.00;99072.44;4475741;32;35756;-80
2022/08/22 06:37:04;;;;;;;10.63;7.87;;;;;;;21.46;100.00;99074.47;4475918;32;34185;-80
2022/08/22 06:39:58;;;;;;;13.38;7.80;;;;;;;21.80;100.00;99074.06;4462702;32;33610;-80
2022/08/22 06:42:48;;;;;;;;;;;;;;;21.53;100.00;99074.47;4476580;32;34565;-80
2022/08/22 06:45:42;;;;;;;10.95;7.93;;;;;;;21.07;100.00;99079.97;4480333;32;34734;-80
2022/08/22 06:48:30;;;;;;;12.13;8.02;;;;;;;21.47;100.00;99078.84;4477506;32;33635;-80
2022/08/22 06:51:26;;;;;;;11.98;7.65;;;;;;;21.91;100.00;99085.97;4478638;32;34076;-80
2022/08/22 06:54:23;;;;;;;10.77;7.80;;;;;;;22.12;100.00;99076.78;4482115;32;34673;-80
2022/08/22 06:57:25;;;;;;;11.15;7.40;;;;;;;21.05;100.00;99083.12;4461867;32;35016;-80
2022/08/22 07:00:16;;;;;;;12.43;7.45;;;;;;;22.00;100.00;99080.78;4477151;32;34508;-80
2022/08/22 07:03:20;;;;;;;12.02;6.95;;;;;;;22.89;100.00;99076.88;4479197;32;34067;-80
2022/08/22 07:06:29;;;;;;;12.60;7.95;;;;;;;23.29;100.00;99076.66;4482419;32;35238;-80
2022/08/22 07:09:40;;;;;;;16.12;7.20;;;;;;;21.86;100.00;99075.25;4469844;32;34908;-80
2022/08/22 07:12:35;;;;;;;15.27;7.70;;;;;;;22.14;100.00;99068.00;4482598;32;35056;-80
2022/08/22 07:15:31;;;;;;;11.05;7.82;;;;;;;22.17;100.00;99075.56;4464904;32;34817;-80
2022/08/22 07:18:22;;;;;;;12.18;7.50;;;;;;;21.94;100.00;99081.59;4477128;32;34615;-80
2022/08/22 07:24:13;;;;;;;12.43;7.28;;;;;;;22.71;100.00;99080.97;4481881;32;35734;-81
2022/08/22 07:27:07;;;;;;;16.70;9.38;;;;;;;22.13;100.00;99083.16;4478576;32;35003;-81
2022/08/22 07:30:02;;;;;;;13.98;7.93;;;;;;;23.09;100.00;99084.78;4476769;32;35622;-80
2022/08/22 07:32:57;;;;;;;12.63;7.90;;;;;;;22.69;100.00;99092.56;4465118;32;34493;-80
2022/08/22 07:36:43;;;;;;;11.95;7.70;;;;;;;23.53;100.00;99083.25;4465276;32;34205;-80
2022/08/22 07:39:37;;;;;;;18.08;8.98;;;;;;;23.56;100.00;99082.41;4464733;32;35071;-81
2022/08/22 07:42:41;;;;;;;12.43;7.50;;;;;;;22.93;100.00;99090.03;4462542;32;35174;-80
2022/08/22 07:45:46;;;;;;;13.18;8.73;;;;;;;23.61;100.00;99079.19;4455390;32;34997;-80
2022/08/22 07:48:48;;;;;;;13.38;9.20;;;;;;;22.90;100.00;99091.63;4459376;32;35322;-80
2022/08/22 07:52:06;;;;;;;11.57;8.40;;;;;;;22.27;100.00;99099.09;4467381;32;35136;-80
2022/08/22 07:55:09;;;;;;;13.68;8.10;;;;;;;23.69;100.00;99096.72;4455418;32;35339;-81
2022/08/22 07:58:00;;;;;;;12.88;7.93;;;;;;;23.63;100.00;99099.16;4475435;32;35519;-80
2022/08/22 08:00:56;;;;;;;10.70;7.97;;;;;;;23.57;100.00;99095.22;4465019;32;34425;-80
2022/08/22 08:04:00;;;;;;;13.45;8.10;;;;;;;23.48;100.00;99097.66;4464476;32;35007;-80
2022/08/22 08:06:51;;;;;;;16.67;8.23;;;;;;;23.82;100.00;99094.22;4454415;32;35648;-80
2022/08/22 08:09:51;;;;;;;12.18;8.00;;;;;;;24.35;100.00;99102.06;4474751;32;35110;-80
2022/08/22 08:12:49;;;;;;;12.60;7.60;;;;;;;24.14;100.00;99089.09;4474953;32;34486;-80
2022/08/22 08:15:54;;;;;;;12.52;9.02;;;;;;;24.43;96.33;99088.81;4460393;32;35077;-80
2022/08/22 08:18:50;;;;;;;13.55;8.82;;;;;;;24.37;99.69;99090.47;4462607;32;34444;-80
2022/08/22 08:21:49;;;;;;;12.55;8.10;;;;;;;24.97;95.84;99105.72;4440758;32;35695;-80
2022/08/22 08:24:42;;;;;;;12.20;8.88;;;;;;;25.09;94.11;99102.34;4453660;32;34598;-80
2022/08/22 08:30:43;;;;;;;13.60;9.38;;;;;;;23.95;96.02;99086.91;4461518;32;35229;-79
2022/08/22 08:33:38;;;;;;;12.95;9.13;;;;;;;22.71;100.00;99095.72;4479655;32;34896;-79
2022/08/22 08:36:33;;;;;;;13.07;7.40;;;;;;;23.73;99.82;99095.47;4480035;32;35375;-80
2022/08/22 08:39:26;;;;;;;11.38;7.72;;;;;;;24.26;97.42;99096.19;4479167;32;36296;-79
2022/08/22 08:43:25;;;;;;;11.73;7.45;;;;;;;24.24;97.53;99093.00;4471221;32;35262;-79
2022/08/22 08:46:24;;;;;;;12.88;7.85;;;;;;;24.42;93.97;99096.41;4480618;32;34962;-79
2022/08/22 08:49:57;;;;;;;13.52;8.07;;;;;;;24.37;93.89;99096.06;4477834;32;34469;-79
2022/08/22 08:56:52;;;;;;;15.10;7.50;;;;;;;23.18;100.00;99101.09;4472104;32;34952;-79
2022/08/22 09:00:13;;;;;;;12.52;7.28;;;;;;;23.74;100.00;99104.69;4477350;32;35998;-80
2022/08/22 09:03:31;;;;;;;10.55;7.62;;;;;;;23.85;100.00;99104.56;4475523;32;33299;-79
2022/08/22 09:06:46;;;;;;;12.45;6.53;;;;;;;22.95;100.00;99107.19;4461487;32;34995;-79
2022/08/22 09:09:52;;;;;;;12.18;7.18;;;;;;;22.98;100.00;99112.00;4474353;32;35593;-79
2022/08/22 09:13:23;;;;;;;11.07;6.85;;;;;;;22.81;100.00;99105.25;4480975;32;35508;-79
2022/08/22 09:16:28;;;;;;;12.45;6.68;;;;;;;24.18;96.56;99106.66;4480929;32;34530;-79
2022/08/22 09:19:44;;;;;;;8.20;5.82;;;;;;;24.82;90.76;99104.34;4481332;32;34127;-79
2022/08/22 09:22:38;;;;;;;9.13;6.00;;;;;;;24.33;94.07;99106.50;4474575;32;34292;-79
2022/08/22 09:25:56;;;;;;;9.40;6.22;;;;;;;24.50;94.06;99108.31;4480924;32;34520;-79
2022/08/22 09:28:58;;;;;;;12.00;6.15;;;;;;;24.65;93.87;99106.16;4481262;32;34147;-79
2022/08/22 09:31:55;;;;;;;10.95;5.93;;;;;;;24.10;98.14;99102.34;4479029;32;34195;-79
2022/08/22 09:34:58;;;;;;;10.95;6.35;;;;;;;24.44;97.73;99096.78;4473434;32;35689;-79
2022/08/22 09:37:52;;;;;;;11.73;6.75;;;;;;;24.75;96.45;99105.22;4480947;32;34730;-79
2022/08/22 09:40:52;;;;;;;13.70;7.53;;;;;;;24.79;95.57;99110.75;4480839;32;34617;-79
2022/08/22 09:44:15;;;;;;;13.68;6.78;;;;;;;25.48;90.39;99112.22;4481006;32;34214;-78
2022/08/22 09:47:30;;;;;;;9.60;6.35;;;;;;;25.46;90.16;99103.44;4479604;32;35590;-79
2022/08/22 09:50:48;;;;;;;10.00;6.28;;;;;;;24.96;94.11;99104.16;4478911;32;35667;-79
2022/08/22 09:54:10;;;;;;;10.18;6.50;;;;;;;25.30;87.77;99104.09;4471941;32;35461;-79
2022/08/22 09:57:10;;;;;;;12.45;6.87;;;;;;;25.17;92.49;99103.06;4464604;32;35164;-79
2022/08/22 10:00:12;;;;;;;11.07;7.57;;;;;;;25.06;98.19;99105.22;4470608;32;35530;-79
2022/08/22 10:03:16;;;;;;;11.02;7.55;;;;;;;25.31;95.38;99107.69;4474608;32;35586;-79
2022/08/22 10:06:13;;;;;;;11.82;8.13;;;;;;;25.91;90.06;99100.31;4479436;32;35286;-79
2022/08/22 10:09:10;;;;;;;12.65;8.43;;;;;;;25.39;96.15;99111.16;4468366;32;33708;-79
2022/08/22 10:12:07;;;;;;;13.90;8.07;;;;;;;25.51;91.05;99113.38;4467177;32;34542;-79
2022/08/22 10:15:22;;;;;;;12.35;9.02;;;;;;;25.81;92.18;99106.84;4469110;32;35958;-79
2022/08/22 10:18:37;;;;;;;13.55;8.82;;;;;;;25.39;100.00;99109.16;4480443;32;35731;-79
2022/08/22 10:21:49;;;;;;;13.50;7.60;;;;;;;24.99;100.00;99103.31;4469131;32;34696;-80
2022/08/22 10:25:06;;;;;;;12.80;7.80;;;;;;;25.68;98.67;99108.69;4480211;32;34374;-79
2022/08/22 10:28:07;;;;;;;13.35;8.35;;;;;;;25.37;100.00;99108.00;4465586;32;173151;-80
2022/08/22 10:34:12;;;;;;;12.13;8.35;;;;;;;25.98;95.56;99102.97;4478673;32;34894;-79
2022/08/22 10:37:14;;;;;;;;;;;;;;;25.93;97.59;99111.91;4480343;32;35225;-79
2022/08/22 10:40:16;;;;;;;11.45;7.72;;;;;;;25.97;98.44;99107.00;4478674;32;36011;-79
2022/08/22 10:43:23;;;;;;;12.35;7.25;;;;;;;26.30;90.63;99101.59;4473590;32;35301;-79
2022/08/22 10:46:19;;;;;;;9.13;7.18;;;;;;;26.13;91.15;99105.53;4475841;32;34183;-79
2022/08/22 10:49:30;;;;;;;9.55;7.05;;;;;;;25.75;95.90;99119.78;4468136;32;35060;-78
2022/08/22 10:52:31;;;;;;;14.10;7.05;;;;;;;25.90;92.83;99109.94;4468681;32;35581;-79
2022/08/22 10:55:26;;;;;;;9.23;7.00;;;;;;;26.21;87.88;99106.97;4463510;32;33993;-78
2022/08/22 10:58:26;;;;;;;12.65;6.37;;;;;;;26.62;83.35;99109.41;4465816;32;34212;-78
2022/08/22 11:01:22;;;;;;;9.70;6.55;;;;;;;26.63;82.34;99105.34;4471993;32;34551;-79
2022/08/22 11:04:46;;;;;;;8.90;5.85;;;;;;;26.77;81.90;99100.66;4473126;32;35525;-78
2022/08/22 11:08:14;;;;;;;9.73;5.85;;;;;;;27.08;80.37;99101.97;4480085;32;33548;-78
2022/08/22 11:11:30;;;;;;;9.60;6.05;;;;;;;27.06;78.90;99104.44;4467124;31;34511;-78
2022/08/22 11:15:17;;;;;;;11.70;6.05;;;;;;;27.45;77.67;99099.16;4473452;32;34548;-77
2022/08/22 11:18:27;;;;;;;9.82;6.18;;;;;;;27.29;80.43;99091.50;4480215;32;35988;-78
2022/08/22 11:21:30;;;;;;;12.00;6.30;;;;;;;26.88;81.59;99104.03;4473230;32;34600;-78
2022/08/22 11:24:29;;;;;;;8.63;5.70;;;;;;;27.47;77.58;99093.91;4480361;32;35136;-77
2022/08/22 11:30:36;;;;;;;13.90;9.80;;;;;;;27.20;82.91;99102.56;4475350;32;35966;-77
2022/08/22 11:33:49;;;;;;;22.27;10.75;;;;;;;27.18;83.50;99105.00;4481523;32;34343;-78
2022/08/22 11:36:50;;;;;;;14.93;10.35;;;;;;;27.36;80.27;99099.78;4478247;32;34181;-78
2022/08/22 11:39:56;;;;;;;16.67;12.15;;;;;;;26.72;85.46;99096.34;4475045;32;34219;-77
2022/08/22 11:42:51;;;;;;;20.50;13.05;;;;;;;27.14;81.57;99093.81;4481737;32;34961;-77
2022/08/22 11:45:56;;;;;;;17.37;11.93;;;;;;;27.14;83.32;99093.81;4476774;32;34060;-77
2022/08/22 11:48:57;;;;;;;16.73;11.43;;;;;;;27.13;81.37;99092.25;4475277;32;34251;-77
2022/08/22 11:52:02;;;;;;;16.05;10.88;;;;;;;27.40;80.76;99094.84;4481715;32;34564;-77
2022/08/22 11:55:00;;;;;;;16.10;12.37;;;;;;;27.45;78.22;99093.53;4481877;32;35139;-77
2022/08/22 11:57:58;;;;;;;16.10;11.98;;;;;;;27.67;79.04;99088.19;4481512;32;34488;-77
2022/08/22 12:01:00;;;;;;;14.77;9.77;;;;;;;27.74;78.04;99090.81;4477869;32;33767;-77
2022/08/22 12:04:00;;;;;;;14.25;10.30;;;;;;;28.01;78.51;99082.09;4476980;32;34488;-77
2022/08/22 12:06:54;;;;;;;13.50;9.90;;;;;;;28.01;77.50;99082.09;4474097;32;34879;-77
2022/08/22 12:09:50;;;;;;;13.48;10.55;;;;;;;28.01;77.50;99082.09;4482545;32;34158;-77
2022/08/22 12:12:41;;;;;;;12.77;9.68;;;;;;;28.16;76.49;99077.66;4476327;32;34234;-77
2022/08/22 12:15:53;;;;;;;12.60;10.55;;;;;;;28.43;74.50;99079.34;4482131;32;34703;-77
2022/08/22 12:18:48;;;;;;;19.50;11.80;;;;;;;28.47;73.31;99080.03;4477638;32;34935;-76
2022/08/22 12:22:30;;;;;;;16.85;12.32;;;;;;;28.13;74.70;99072.91;4481697;32;35416;-77
2022/08/22 12:25:27;;;;;;;15.20;10.93;;;;;;;28.42;74.08;99077.78;4474824;32;34250;-77
2022/08/22 12:31:33;;;;;;;13.45;9.95;;;;;;;27.66;75.41;99076.09;4481294;32;35564;-76
2022/08/22 12:35:17;;;;;;;15.93;10.68;;;;;;;27.38;78.49;99077.63;4482206;32;34631;-77
2022/08/22 12:38:11;;;;;;;;;;;;;;;27.61;77.48;99081.47;4467820;32;35017;-77
2022/08/22 12:41:28;;;;;;;14.43;10.10;;;;;;;27.36;77.37;99075.25;4474511;32;35819;-76
2022/08/22 12:45:10;;;;;;;13.60;9.90;;;;;;;27.74;74.81;99071.87;4475238;32;34578;-77
2022/08/22 12:48:02;;;;;;;15.77;8.95;;;;;;;27.66;76.66;99070.47;4452462;31;34465;-77
2022/08/22 12:51:18;;;;;;;13.02;9.13;;;;;;;27.57;80.28;99073.13;4481863;32;34110;-77
2022/08/22 12:54:52;;;;;;;14.30;10.13;;;;;;;27.69;74.89;99072.44;4480961;32;34323;-78
2022/08/22 12:58:06;;;;;;;13.80;9.60;;;;;;;27.66;76.12;99078.91;4477036;31;35108;-77
2022/08/22 13:01:05;;;;;;;15.55;10.15;;;;;;;27.39;77.92;99084.03;4480069;32;34528;-78
2022/08/22 13:04:02;;;;;;;11.70;8.95;;;;;;;27.03;79.87;99080.00;4479238;32;34108;-77
2022/08/22 13:07:08;;;;;;;11.45;6.70;;;;;;;26.57;83.31;99078.22;4477170;32;35204;-76
2022/08/22 13:10:14;;;;;;;8.73;5.00;;;;;;;26.31;83.34;99086.31;4483214;32;34906;-77
2022/08/22 13:13:05;;;;;;;7.22;4.18;;;;;;;26.27;81.41;99082.81;4483861;32;34687;-77
2022/08/22 13:16:15;;;;;;;7.10;4.47;;;;;;;26.02;77.54;99089.69;4478824;32;34025;-78
2022/08/22 13:19:11;;;;;;;8.98;4.70;;;;;;;25.42;83.41;99091.47;4473426;32;34213;-77
2022/08/22 13:22:07;;;;;;;10.85;5.53;;;;;;;25.13;84.90;99091.91;4476488;32;35970;-77
2022/08/22 13:25:16;;;;;;;8.55;5.75;;;;;;;25.29;86.73;99090.47;4475534;32;34544;-77
2022/08/22 13:28:13;;;;;;;9.48;6.30;;;;;;;25.16;86.35;99095.06;4474827;32;34074;-77
2022/08/22 13:31:14;;;;;;;11.68;6.95;;;;;;;25.48;86.24;99097.41;4482283;32;34637;-77
2022/08/22 13:34:11;;;;;;;;;;;;;;;25.47;84.59;99096.63;4482422;32;35027;-77
2022/08/22 13:37:15;;;;;;;7.90;4.75;;;;;;;23.96;93.23;99099.69;4479412;32;35694;-78
2022/08/22 13:40:12;;;;;;;8.57;5.18;;;;;;;24.34;92.69;99097.69;4477517;32;34960;-78
2022/08/22 13:43:09;;;;;;;7.78;4.82;;;;;;;24.40;92.66;99106.44;4469312;32;34621;-78
2022/08/22 13:46:07;;;;;;;6.80;4.10;;;;;;;24.83;88.54;99105.94;4464756;32;35968;-77
2022/08/22 13:49:11;;;;;;;7.87;4.75;;;;;;;23.94;92.55;99110.50;4479614;32;35410;-77
2022/08/22 13:52:38;;;;;;;8.98;5.87;;;;;;;24.27;91.82;99110.97;4484604;31;34090;-77
2022/08/22 13:55:35;;;;;;;10.38;5.20;;;;;;;24.57;88.67;99107.47;4489370;31;35569;-78
2022/08/22 13:58:41;;;;;;;9.82;5.80;;;;;;;25.12;86.50;99118.31;4478722;31;35897;-77
2022/08/22 14:01:49;;;;;;;8.50;5.70;;;;;;;24.11;89.77;99123.53;4481617;31;35479;-77
2022/08/22 14:04:49;;;;;;;10.65;5.10;;;;;;;23.77;91.26;99113.03;4483955;31;34960;-77
2022/08/22 14:07:51;;;;;;;7.32;4.80;;;;;;;24.50;89.13;99116.72;4479104;31;35506;-77
2022/08/22 14:10:52;;;;;;;9.13;4.97;;;;;;;25.01;87.00;99123.28;4482649;31;35011;-77
2022/08/22 14:16:57;;;;;;;8.23;5.10;;;;;;;23.88;92.96;99115.75;4490805;31;33758;-77
2022/08/22 14:19:57;;;;;;;5.93;3.20;;;;;;;23.48;96.63;99126.44;4481041;31;35516;-76
2022/08/22 14:23:00;;;;;;;4.18;2.45;;;;;;;23.19;97.10;99113.84;4480480;31;35990;-76
2022/08/22 14:25:57;;;;;;;3.70;2.30;;;;;;;22.37;100.00;99112.19;4476675;31;34153;-76
2022/08/22 14:28:57;;;;;;;3.08;1.77;;;;;;;22.70;99.47;99116.47;4482250;31;34156;-76
2022/08/22 14:32:01;;;;;;;1.77;1.15;;;;;;;21.67;100.00;99123.06;4489640;31;34542;-76
2022/08/22 14:35:06;;;;;;;2.87;1.20;;;;;;;21.94;100.00;99113.09;4488857;31;35053;-77
2022/08/22 14:38:15;;;;;;;2.97;1.20;;;;;;;21.93;100.00;99114.25;4482134;31;34507;-77
2022/08/22 14:41:12;;;;;;;2.37;1.20;;;;;;;21.57;100.00;99116.25;4489190;31;34097;-77